sensor_id;sensor_type;location;lat;lon;timestamp;pressure;altitude;pressure_sealevel;temperature;humidity
7200;BME280;3641;49.082;8.200;2023-01-29T00:00:45;101652.94;;;0.89;73.23
7200;BME280;3641;49.082;8.200;2023-01-29T00:03:12;101650.63;;;0.83;72.98
7200;BME280;3641;49.082;8.200;2023-01-29T00:05:38;101653.00;;;0.74;72.43
7200;BME280;3641;49.082;8.200;2023-01-29T00:08:06;101655.75;;;0.72;73.42
7200;BME280;3641;49.082;8.200;2023-01-29T00:10:33;101666.03;;;0.80;73.45
7200;BME280;3641;49.082;8.200;2023-01-29T00:12:59;101666.41;;;0.89;73.53
7200;BME280;3641;49.082;8.200;2023-01-29T00:15:26;101669.16;;;0.88;72.99
7200;BME280;3641;49.082;8.200;2023-01-29T00:17:52;101662.59;;;0.78;72.19
7200;BME280;3641;49.082;8.200;2023-01-29T00:20:19;101660.97;;;0.75;71.51
7200;BME280;3641;49.082;8.200;2023-01-29T00:22:45;101657.22;;;0.62;71.07
7200;BME280;3641;49.082;8.200;2023-01-29T00:25:13;101658.94;;;0.79;72.76
7200;BME280;3641;49.082;8.200;2023-01-29T00:27:39;101660.44;;;0.68;71.86
7200;BME280;3641;49.082;8.200;2023-01-29T00:30:07;101644.94;;;0.74;72.77
7200;BME280;3641;49.082;8.200;2023-01-29T00:32:36;101650.81;;;0.80;73.43
7200;BME280;3641;49.082;8.200;2023-01-29T00:35:03;101647.63;;;0.74;72.40
7200;BME280;3641;49.082;8.200;2023-01-29T00:37:30;101653.44;;;0.66;70.74
7200;BME280;3641;49.082;8.200;2023-01-29T00:39:57;101643.34;;;0.69;72.99
7200;BME280;3641;49.082;8.200;2023-01-29T00:42:24;101639.38;;;0.77;73.63
7200;BME280;3641;49.082;8.200;2023-01-29T00:45:09;101637.81;;;0.72;72.52
7200;BME280;3641;49.082;8.200;2023-01-29T00:47:36;101642.19;;;0.59;72.21
7200;BME280;3641;49.082;8.200;2023-01-29T00:50:04;101642.50;;;0.69;72.61
7200;BME280;3641;49.082;8.200;2023-01-29T00:52:31;101642.25;;;0.58;71.34
7200;BME280;3641;49.082;8.200;2023-01-29T00:54:59;101647.03;;;0.83;73.44
7200;BME280;3641;49.082;8.200;2023-01-29T00:57:29;101649.00;;;0.65;72.27
7200;BME280;3641;49.082;8.200;2023-01-29T00:59:56;101648.81;;;0.68;72.47
7200;BME280;3641;49.082;8.200;2023-01-29T01:02:23;101654.78;;;0.73;73.50
7200;BME280;3641;49.082;8.200;2023-01-29T01:05:08;101657.56;;;0.71;73.14
7200;BME280;3641;49.082;8.200;2023-01-29T01:07:40;101653.09;;;0.56;72.34
7200;BME280;3641;49.082;8.200;2023-01-29T01:10:13;101650.56;;;0.69;73.19
7200;BME280;3641;49.082;8.200;2023-01-29T01:12:53;101649.75;;;0.67;72.57
7200;BME280;3641;49.082;8.200;2023-01-29T01:15:20;101657.47;;;0.73;72.46
7200;BME280;3641;49.082;8.200;2023-01-29T01:17:47;101658.81;;;0.66;72.95
7200;BME280;3641;49.082;8.200;2023-01-29T01:20:16;101665.13;;;0.65;71.95
7200;BME280;3641;49.082;8.200;2023-01-29T01:22:43;101658.53;;;0.70;72.44
7200;BME280;3641;49.082;8.200;2023-01-29T01:25:10;101668.75;;;0.64;73.07
7200;BME280;3641;49.082;8.200;2023-01-29T01:27:36;101674.75;;;0.69;71.96
7200;BME280;3641;49.082;8.200;2023-01-29T01:30:09;101667.06;;;0.47;72.31
7200;BME280;3641;49.082;8.200;2023-01-29T01:32:37;101668.75;;;0.48;73.04
7200;BME280;3641;49.082;8.200;2023-01-29T01:35:04;101673.34;;;0.62;71.55
7200;BME280;3641;49.082;8.200;2023-01-29T01:37:31;101669.63;;;0.64;72.54
7200;BME280;3641;49.082;8.200;2023-01-29T01:39:57;101666.34;;;0.59;72.61
7200;BME280;3641;49.082;8.200;2023-01-29T01:42:27;101667.38;;;0.57;71.91
7200;BME280;3641;49.082;8.200;2023-01-29T01:44:58;101662.00;;;0.57;72.16
7200;BME280;3641;49.082;8.200;2023-01-29T01:47:34;101671.34;;;0.65;72.79
7200;BME280;3641;49.082;8.200;2023-01-29T01:50:06;101661.56;;;0.64;72.79
7200;BME280;3641;49.082;8.200;2023-01-29T01:52:36;101667.66;;;0.52;71.89
7200;BME280;3641;49.082;8.200;2023-01-29T01:55:05;101668.75;;;0.48;72.82
7200;BME280;3641;49.082;8.200;2023-01-29T01:57:32;101658.56;;;0.54;73.07
7200;BME280;3641;49.082;8.200;2023-01-29T02:00:02;101651.34;;;0.55;72.87
7200;BME280;3641;49.082;8.200;2023-01-29T02:02:37;101651.44;;;0.53;73.40
7200;BME280;3641;49.082;8.200;2023-01-29T02:05:21;101652.13;;;0.41;72.74
7200;BME280;3641;49.082;8.200;2023-01-29T02:08:05;101656.81;;;0.53;72.52
7200;BME280;3641;49.082;8.200;2023-01-29T02:10:49;101658.56;;;0.39;71.90
7200;BME280;3641;49.082;8.200;2023-01-29T02:13:15;101668.00;;;0.46;72.53
7200;BME280;3641;49.082;8.200;2023-01-29T02:15:43;101674.75;;;0.53;73.22
7200;BME280;3641;49.082;8.200;2023-01-29T02:18:14;101672.34;;;0.48;73.35
7200;BME280;3641;49.082;8.200;2023-01-29T02:20:46;101665.81;;;0.36;71.46
7200;BME280;3641;49.082;8.200;2023-01-29T02:23:45;101655.88;;;0.54;72.78
7200;BME280;3641;49.082;8.200;2023-01-29T02:26:24;101661.69;;;0.47;72.82
7200;BME280;3641;49.082;8.200;2023-01-29T02:29:01;101661.94;;;0.42;72.71
7200;BME280;3641;49.082;8.200;2023-01-29T02:31:51;101649.88;;;0.49;71.73
7200;BME280;3641;49.082;8.200;2023-01-29T02:34:29;101652.66;;;0.48;72.52
7200;BME280;3641;49.082;8.200;2023-01-29T02:37:20;101653.03;;;0.26;71.54
7200;BME280;3641;49.082;8.200;2023-01-29T02:39:58;101657.00;;;0.34;73.16
7200;BME280;3641;49.082;8.200;2023-01-29T02:42:34;101650.75;;;0.34;72.37
7200;BME280;3641;49.082;8.200;2023-01-29T02:45:09;101644.34;;;0.21;71.80
7200;BME280;3641;49.082;8.200;2023-01-29T02:47:41;101644.72;;;0.46;72.32
7200;BME280;3641;49.082;8.200;2023-01-29T02:50:14;101645.22;;;0.37;72.36
7200;BME280;3641;49.082;8.200;2023-01-29T02:52:44;101645.56;;;0.31;71.92
7200;BME280;3641;49.082;8.200;2023-01-29T02:55:20;101631.53;;;0.26;71.85
7200;BME280;3641;49.082;8.200;2023-01-29T02:57:51;101633.69;;;0.35;72.59
7200;BME280;3641;49.082;8.200;2023-01-29T03:00:25;101626.69;;;0.32;73.06
7200;BME280;3641;49.082;8.200;2023-01-29T03:02:56;101640.03;;;0.34;72.94
7200;BME280;3641;49.082;8.200;2023-01-29T03:05:27;101633.50;;;0.22;71.30
7200;BME280;3641;49.082;8.200;2023-01-29T03:07:59;101634.47;;;0.37;72.84
7200;BME280;3641;49.082;8.200;2023-01-29T03:10:32;101629.03;;;0.39;72.63
7200;BME280;3641;49.082;8.200;2023-01-29T03:13:05;101631.88;;;0.35;73.28
7200;BME280;3641;49.082;8.200;2023-01-29T03:15:39;101637.00;;;0.40;72.85
7200;BME280;3641;49.082;8.200;2023-01-29T03:18:13;101635.75;;;0.46;73.37
7200;BME280;3641;49.082;8.200;2023-01-29T03:20:43;101647.09;;;0.35;73.41
7200;BME280;3641;49.082;8.200;2023-01-29T03:23:15;101641.47;;;0.40;73.06
7200;BME280;3641;49.082;8.200;2023-01-29T03:25:48;101633.50;;;0.38;73.19
7200;BME280;3641;49.082;8.200;2023-01-29T03:28:34;101636.28;;;0.36;73.51
7200;BME280;3641;49.082;8.200;2023-01-29T03:31:20;101639.13;;;0.33;73.54
7200;BME280;3641;49.082;8.200;2023-01-29T03:34:07;101634.56;;;0.20;73.06
7200;BME280;3641;49.082;8.200;2023-01-29T03:36:42;101643.41;;;0.22;73.60
7200;BME280;3641;49.082;8.200;2023-01-29T03:39:13;101638.44;;;0.14;73.95
7200;BME280;3641;49.082;8.200;2023-01-29T03:41:46;101639.59;;;0.26;73.15
7200;BME280;3641;49.082;8.200;2023-01-29T03:44:17;101637.75;;;0.26;73.69
7200;BME280;3641;49.082;8.200;2023-01-29T03:46:51;101636.28;;;0.21;74.01
7200;BME280;3641;49.082;8.200;2023-01-29T03:49:24;101639.44;;;0.29;73.39
7200;BME280;3641;49.082;8.200;2023-01-29T03:51:59;101644.09;;;0.25;73.83
7200;BME280;3641;49.082;8.200;2023-01-29T03:54:33;101646.75;;;0.09;73.50
7200;BME280;3641;49.082;8.200;2023-01-29T03:57:08;101640.09;;;0.16;73.61
7200;BME280;3641;49.082;8.200;2023-01-29T03:59:47;101642.72;;;0.18;73.64
7200;BME280;3641;49.082;8.200;2023-01-29T04:02:19;101637.84;;;0.25;73.79
7200;BME280;3641;49.082;8.200;2023-01-29T04:04:53;101641.81;;;0.17;73.23
7200;BME280;3641;49.082;8.200;2023-01-29T04:07:23;101649.88;;;0.17;73.43
7200;BME280;3641;49.082;8.200;2023-01-29T04:09:54;101649.44;;;0.09;74.02
7200;BME280;3641;49.082;8.200;2023-01-29T04:12:25;101647.91;;;0.05;74.16
7200;BME280;3641;49.082;8.200;2023-01-29T04:14:56;101653.69;;;0.13;73.83
7200;BME280;3641;49.082;8.200;2023-01-29T04:17:28;101646.66;;;0.11;73.96
7200;BME280;3641;49.082;8.200;2023-01-29T04:19:57;101640.97;;;0.17;73.83
7200;BME280;3641;49.082;8.200;2023-01-29T04:22:29;101649.03;;;0.17;73.51
7200;BME280;3641;49.082;8.200;2023-01-29T04:24:57;101651.78;;;0.15;73.51
7200;BME280;3641;49.082;8.200;2023-01-29T04:27:34;101659.06;;;0.13;73.43
7200;BME280;3641;49.082;8.200;2023-01-29T04:30:18;101651.09;;;-0.04;74.09
7200;BME280;3641;49.082;8.200;2023-01-29T04:32:56;101659.91;;;-0.02;74.10
7200;BME280;3641;49.082;8.200;2023-01-29T04:35:31;101659.72;;;-0.15;75.58
7200;BME280;3641;49.082;8.200;2023-01-29T04:38:07;101666.91;;;-0.15;74.33
7200;BME280;3641;49.082;8.200;2023-01-29T04:40:46;101658.53;;;-0.09;75.13
7200;BME280;3641;49.082;8.200;2023-01-29T04:43:20;101656.78;;;-0.10;75.00
7200;BME280;3641;49.082;8.200;2023-01-29T04:46:03;101653.00;;;-0.06;74.11
7200;BME280;3641;49.082;8.200;2023-01-29T04:48:43;101660.50;;;-0.13;74.85
7200;BME280;3641;49.082;8.200;2023-01-29T04:51:18;101649.47;;;-0.24;75.42
7200;BME280;3641;49.082;8.200;2023-01-29T04:53:50;101650.56;;;-0.11;75.06
7200;BME280;3641;49.082;8.200;2023-01-29T04:56:25;101658.94;;;-0.17;75.54
7200;BME280;3641;49.082;8.200;2023-01-29T04:58:57;101651.84;;;-0.02;74.96
7200;BME280;3641;49.082;8.200;2023-01-29T05:01:29;101662.00;;;0.09;74.65
7200;BME280;3641;49.082;8.200;2023-01-29T05:04:01;101671.72;;;0.11;74.70
7200;BME280;3641;49.082;8.200;2023-01-29T05:06:29;101653.53;;;0.01;74.85
7200;BME280;3641;49.082;8.200;2023-01-29T05:08:58;101648.66;;;0.07;75.00
7200;BME280;3641;49.082;8.200;2023-01-29T05:11:26;101646.66;;;-0.05;74.97
7200;BME280;3641;49.082;8.200;2023-01-29T05:13:53;101642.78;;;0.01;74.38
7200;BME280;3641;49.082;8.200;2023-01-29T05:16:22;101627.63;;;-0.01;74.36
7200;BME280;3641;49.082;8.200;2023-01-29T05:18:52;101619.56;;;-0.01;74.82
7200;BME280;3641;49.082;8.200;2023-01-29T05:21:20;101617.47;;;-0.11;74.22
7200;BME280;3641;49.082;8.200;2023-01-29T05:24:07;101624.94;;;-0.01;74.76
7200;BME280;3641;49.082;8.200;2023-01-29T05:26:33;101627.69;;;-0.02;74.98
7200;BME280;3641;49.082;8.200;2023-01-29T05:29:19;101628.03;;;-0.08;74.77
7200;BME280;3641;49.082;8.200;2023-01-29T05:31:45;101624.94;;;-0.01;73.75
7200;BME280;3641;49.082;8.200;2023-01-29T05:34:12;101612.56;;;-0.03;74.27
7200;BME280;3641;49.082;8.200;2023-01-29T05:36:40;101624.25;;;-0.04;74.39
7200;BME280;3641;49.082;8.200;2023-01-29T05:39:06;101623.00;;;-0.14;73.90
7200;BME280;3641;49.082;8.200;2023-01-29T05:41:33;101625.69;;;0.02;73.91
7200;BME280;3641;49.082;8.200;2023-01-29T05:43:59;101627.63;;;-0.01;74.50
7200;BME280;3641;49.082;8.200;2023-01-29T05:46:26;101622.16;;;0.01;74.40
7200;BME280;3641;49.082;8.200;2023-01-29T05:48:52;101631.97;;;0.02;74.34
7200;BME280;3641;49.082;8.200;2023-01-29T05:51:18;101631.34;;;-0.03;74.52
7200;BME280;3641;49.082;8.200;2023-01-29T05:53:46;101637.38;;;-0.15;74.68
7200;BME280;3641;49.082;8.200;2023-01-29T05:56:13;101640.69;;;-0.10;75.56
7200;BME280;3641;49.082;8.200;2023-01-29T05:58:39;101642.44;;;-0.09;74.66
7200;BME280;3641;49.082;8.200;2023-01-29T06:01:10;101655.13;;;-0.13;74.67
7200;BME280;3641;49.082;8.200;2023-01-29T06:03:37;101660.97;;;-0.05;74.96
7200;BME280;3641;49.082;8.200;2023-01-29T06:06:04;101657.22;;;-0.02;75.02
7200;BME280;3641;49.082;8.200;2023-01-29T06:08:30;101647.88;;;-0.11;75.52
7200;BME280;3641;49.082;8.200;2023-01-29T06:10:58;101645.72;;;-0.04;75.34
7200;BME280;3641;49.082;8.200;2023-01-29T06:13:24;101649.41;;;-0.07;74.66
7200;BME280;3641;49.082;8.200;2023-01-29T06:15:51;101654.28;;;-0.13;74.56
7200;BME280;3641;49.082;8.200;2023-01-29T06:18:17;101654.97;;;-0.10;74.32
7200;BME280;3641;49.082;8.200;2023-01-29T06:20:44;101646.66;;;-0.05;74.47
7200;BME280;3641;49.082;8.200;2023-01-29T06:23:10;101646.13;;;-0.12;74.02
7200;BME280;3641;49.082;8.200;2023-01-29T06:25:37;101645.53;;;-0.01;74.01
7200;BME280;3641;49.082;8.200;2023-01-29T06:28:05;101645.19;;;-0.11;74.11
7200;BME280;3641;49.082;8.200;2023-01-29T06:30:31;101643.63;;;-0.15;75.13
7200;BME280;3641;49.082;8.200;2023-01-29T06:32:58;101636.88;;;-0.06;74.07
7200;BME280;3641;49.082;8.200;2023-01-29T06:35:26;101638.69;;;-0.07;73.74
7200;BME280;3641;49.082;8.200;2023-01-29T06:37:52;101640.34;;;-0.04;74.03
7200;BME280;3641;49.082;8.200;2023-01-29T06:40:19;101642.69;;;0.02;74.30
7200;BME280;3641;49.082;8.200;2023-01-29T06:42:45;101647.97;;;0.04;73.77
7200;BME280;3641;49.082;8.200;2023-01-29T06:45:13;101651.53;;;0.04;73.61
7200;BME280;3641;49.082;8.200;2023-01-29T06:47:40;101654.03;;;-0.09;74.61
7200;BME280;3641;49.082;8.200;2023-01-29T06:50:07;101656.28;;;-0.01;74.12
7200;BME280;3641;49.082;8.200;2023-01-29T06:52:34;101658.28;;;-0.05;74.02
7200;BME280;3641;49.082;8.200;2023-01-29T06:55:00;101653.25;;;-0.11;74.48
7200;BME280;3641;49.082;8.200;2023-01-29T06:57:27;101659.63;;;-0.13;74.20
7200;BME280;3641;49.082;8.200;2023-01-29T06:59:54;101660.03;;;-0.21;74.11
7200;BME280;3641;49.082;8.200;2023-01-29T07:02:22;101656.66;;;-0.25;74.71
7200;BME280;3641;49.082;8.200;2023-01-29T07:04:49;101664.47;;;-0.53;74.68
7200;BME280;3641;49.082;8.200;2023-01-29T07:07:15;101655.44;;;-0.35;75.21
7200;BME280;3641;49.082;8.200;2023-01-29T07:09:42;101649.81;;;-0.30;74.70
7200;BME280;3641;49.082;8.200;2023-01-29T07:12:09;101648.66;;;-0.42;74.84
7200;BME280;3641;49.082;8.200;2023-01-29T07:14:36;101642.97;;;-0.36;75.09
7200;BME280;3641;49.082;8.200;2023-01-29T07:17:02;101637.34;;;-0.31;74.57
7200;BME280;3641;49.082;8.200;2023-01-29T07:19:30;101649.81;;;-0.30;75.38
7200;BME280;3641;49.082;8.200;2023-01-29T07:21:57;101650.84;;;-0.33;74.58
7200;BME280;3641;49.082;8.200;2023-01-29T07:24:26;101651.09;;;-0.38;74.82
7200;BME280;3641;49.082;8.200;2023-01-29T07:26:53;101649.28;;;-0.37;74.63
7200;BME280;3641;49.082;8.200;2023-01-29T07:29:19;101649.34;;;-0.39;74.65
7200;BME280;3641;49.082;8.200;2023-01-29T07:31:45;101653.56;;;-0.50;74.77
7200;BME280;3641;49.082;8.200;2023-01-29T07:34:12;101657.34;;;-0.55;75.16
7200;BME280;3641;49.082;8.200;2023-01-29T07:36:40;101665.34;;;-0.70;75.29
7200;BME280;3641;49.082;8.200;2023-01-29T07:39:06;101672.50;;;-0.53;75.76
7200;BME280;3641;49.082;8.200;2023-01-29T07:41:32;101673.03;;;-0.47;75.54
7200;BME280;3641;49.082;8.200;2023-01-29T07:43:59;101683.44;;;-0.41;74.81
7200;BME280;3641;49.082;8.200;2023-01-29T07:46:25;101684.00;;;-0.51;75.84
7200;BME280;3641;49.082;8.200;2023-01-29T07:48:52;101686.69;;;-0.51;75.32
7200;BME280;3641;49.082;8.200;2023-01-29T07:51:18;101688.53;;;-0.52;75.83
7200;BME280;3641;49.082;8.200;2023-01-29T07:53:46;101690.09;;;-0.48;75.36
7200;BME280;3641;49.082;8.200;2023-01-29T07:56:13;101689.91;;;-0.45;75.37
7200;BME280;3641;49.082;8.200;2023-01-29T07:58:39;101680.41;;;-0.50;75.05
7200;BME280;3641;49.082;8.200;2023-01-29T08:01:06;101679.25;;;-0.46;75.11
7200;BME280;3641;49.082;8.200;2023-01-29T08:03:33;101685.22;;;-0.57;75.19
7200;BME280;3641;49.082;8.200;2023-01-29T08:06:00;101697.09;;;-0.45;75.32
7200;BME280;3641;49.082;8.200;2023-01-29T08:08:26;101694.91;;;-0.55;74.97
7200;BME280;3641;49.082;8.200;2023-01-29T08:10:54;101695.56;;;-0.49;74.61
7200;BME280;3641;49.082;8.200;2023-01-29T08:13:21;101690.00;;;-0.46;75.13
7200;BME280;3641;49.082;8.200;2023-01-29T08:15:47;101695.34;;;-0.46;74.70
7200;BME280;3641;49.082;8.200;2023-01-29T08:18:14;101696.41;;;-0.49;74.19
7200;BME280;3641;49.082;8.200;2023-01-29T08:20:40;101701.38;;;-0.41;74.53
7200;BME280;3641;49.082;8.200;2023-01-29T08:23:10;101712.97;;;-0.41;74.50
7200;BME280;3641;49.082;8.200;2023-01-29T08:25:37;101707.84;;;-0.45;74.97
7200;BME280;3641;49.082;8.200;2023-01-29T08:28:06;101704.69;;;-0.53;74.80
7200;BME280;3641;49.082;8.200;2023-01-29T08:30:33;101706.44;;;-0.52;75.41
7200;BME280;3641;49.082;8.200;2023-01-29T08:33:00;101705.31;;;-0.48;74.91
7200;BME280;3641;49.082;8.200;2023-01-29T08:35:28;101720.78;;;-0.71;75.11
7200;BME280;3641;49.082;8.200;2023-01-29T08:37:55;101716.03;;;-0.66;75.12
7200;BME280;3641;49.082;8.200;2023-01-29T08:40:23;101710.53;;;-0.63;75.76
7200;BME280;3641;49.082;8.200;2023-01-29T08:42:50;101711.97;;;-0.56;75.72
7200;BME280;3641;49.082;8.200;2023-01-29T08:45:18;101708.97;;;-0.49;75.10
7200;BME280;3641;49.082;8.200;2023-01-29T08:47:45;101714.72;;;-0.57;76.04
7200;BME280;3641;49.082;8.200;2023-01-29T08:50:11;101707.91;;;-0.47;75.21
7200;BME280;3641;49.082;8.200;2023-01-29T08:52:38;101704.75;;;-0.38;74.91
7200;BME280;3641;49.082;8.200;2023-01-29T08:55:05;101695.34;;;-0.46;74.80
7200;BME280;3641;49.082;8.200;2023-01-29T08:57:32;101701.78;;;-0.49;74.67
7200;BME280;3641;49.082;8.200;2023-01-29T08:59:58;101700.25;;;-0.37;73.84
7200;BME280;3641;49.082;8.200;2023-01-29T09:02:26;101700.00;;;-0.32;73.82
7200;BME280;3641;49.082;8.200;2023-01-29T09:04:52;101704.88;;;-0.23;73.16
7200;BME280;3641;49.082;8.200;2023-01-29T09:07:20;101718.16;;;-0.20;72.59
7200;BME280;3641;49.082;8.200;2023-01-29T09:09:46;101719.63;;;-0.14;73.08
7200;BME280;3641;49.082;8.200;2023-01-29T09:12:13;101733.06;;;0.02;73.76
7200;BME280;3641;49.082;8.200;2023-01-29T09:14:40;101743.50;;;0.08;73.47
7200;BME280;3641;49.082;8.200;2023-01-29T09:17:06;101747.34;;;0.20;73.13
7200;BME280;3641;49.082;8.200;2023-01-29T09:19:34;101734.31;;;0.12;72.73
7200;BME280;3641;49.082;8.200;2023-01-29T09:22:00;101730.72;;;0.13;72.94
7200;BME280;3641;49.082;8.200;2023-01-29T09:24:27;101709.75;;;0.20;72.44
7200;BME280;3641;49.082;8.200;2023-01-29T09:26:54;101692.50;;;0.24;72.55
7200;BME280;3641;49.082;8.200;2023-01-29T09:29:20;101673.97;;;0.19;71.46
7200;BME280;3641;49.082;8.200;2023-01-29T09:31:47;101667.28;;;0.10;70.72
7200;BME280;3641;49.082;8.200;2023-01-29T09:34:13;101660.50;;;0.03;70.02
7200;BME280;3641;49.082;8.200;2023-01-29T09:36:41;101658.56;;;0.23;72.01
7200;BME280;3641;49.082;8.200;2023-01-29T09:39:07;101657.16;;;0.31;69.79
7200;BME280;3641;49.082;8.200;2023-01-29T09:41:43;101643.38;;;0.38;69.02
7200;BME280;3641;49.082;8.200;2023-01-29T09:44:18;101643.91;;;0.44;70.34
7200;BME280;3641;49.082;8.200;2023-01-29T09:46:47;101642.00;;;0.46;71.60
7200;BME280;3641;49.082;8.200;2023-01-29T09:49:22;101643.84;;;0.76;70.05
7200;BME280;3641;49.082;8.200;2023-01-29T09:51:55;101648.47;;;0.74;70.08
7200;BME280;3641;49.082;8.200;2023-01-29T09:54:28;101637.03;;;0.70;67.44
7200;BME280;3641;49.082;8.200;2023-01-29T09:56:56;101643.00;;;0.76;68.09
7200;BME280;3641;49.082;8.200;2023-01-29T09:59:26;101642.50;;;1.30;67.60
7200;BME280;3641;49.082;8.200;2023-01-29T10:01:59;101643.84;;;1.51;65.15
7200;BME280;3641;49.082;8.200;2023-01-29T10:04:53;101659.47;;;2.72;63.87
7200;BME280;3641;49.082;8.200;2023-01-29T10:07:40;101657.38;;;3.31;61.53
7200;BME280;3641;49.082;8.200;2023-01-29T10:10:17;101656.53;;;3.81;62.52
7200;BME280;3641;49.082;8.200;2023-01-29T10:13:04;101654.16;;;3.77;58.68
7200;BME280;3641;49.082;8.200;2023-01-29T10:15:44;101648.97;;;2.41;59.53
7200;BME280;3641;49.082;8.200;2023-01-29T10:18:40;101647.22;;;3.34;64.67
7200;BME280;3641;49.082;8.200;2023-01-29T10:21:22;101663.22;;;3.76;61.09
7200;BME280;3641;49.082;8.200;2023-01-29T10:23:57;101668.13;;;2.78;60.56
7200;BME280;3641;49.082;8.200;2023-01-29T10:26:26;101667.56;;;3.13;61.72
7200;BME280;3641;49.082;8.200;2023-01-29T10:28:56;101669.09;;;3.17;64.38
7200;BME280;3641;49.082;8.200;2023-01-29T10:31:29;101669.47;;;2.98;69.11
7200;BME280;3641;49.082;8.200;2023-01-29T10:34:00;101669.34;;;2.86;69.98
7200;BME280;3641;49.082;8.200;2023-01-29T10:36:33;101668.34;;;2.75;65.28
7200;BME280;3641;49.082;8.200;2023-01-29T10:39:03;101681.25;;;2.69;69.05
7200;BME280;3641;49.082;8.200;2023-01-29T10:41:47;101690.00;;;2.46;66.77
7200;BME280;3641;49.082;8.200;2023-01-29T10:44:28;101685.06;;;2.52;69.51
7200;BME280;3641;49.082;8.200;2023-01-29T10:47:20;101680.56;;;2.39;65.20
7200;BME280;3641;49.082;8.200;2023-01-29T10:50:04;101675.78;;;2.15;64.77
7200;BME280;3641;49.082;8.200;2023-01-29T10:52:44;101666.44;;;2.21;68.70
7200;BME280;3641;49.082;8.200;2023-01-29T10:55:24;101662.50;;;1.97;66.23
7200;BME280;3641;49.082;8.200;2023-01-29T10:58:00;101648.19;;;1.97;68.39
7200;BME280;3641;49.082;8.200;2023-01-29T11:00:34;101654.81;;;1.77;67.58
7200;BME280;3641;49.082;8.200;2023-01-29T11:03:12;101654.72;;;2.07;68.82
7200;BME280;3641;49.082;8.200;2023-01-29T11:05:43;101637.72;;;1.92;67.64
7200;BME280;3641;49.082;8.200;2023-01-29T11:08:14;101633.84;;;2.11;67.94
7200;BME280;3641;49.082;8.200;2023-01-29T11:10:48;101631.91;;;2.13;68.78
7200;BME280;3641;49.082;8.200;2023-01-29T11:13:17;101622.41;;;2.07;67.40
7200;BME280;3641;49.082;8.200;2023-01-29T11:15:43;101624.22;;;2.07;66.17
7200;BME280;3641;49.082;8.200;2023-01-29T11:18:11;101629.25;;;1.98;65.65
7200;BME280;3641;49.082;8.200;2023-01-29T11:20:40;101621.47;;;1.65;66.74
7200;BME280;3641;49.082;8.200;2023-01-29T11:23:24;101617.31;;;1.88;66.02
7200;BME280;3641;49.082;8.200;2023-01-29T11:25:54;101620.81;;;1.90;66.19
7200;BME280;3641;49.082;8.200;2023-01-29T11:28:36;101605.00;;;2.13;68.45
7200;BME280;3641;49.082;8.200;2023-01-29T11:31:03;101595.72;;;2.17;68.60
7200;BME280;3641;49.082;8.200;2023-01-29T11:33:44;101595.50;;;1.93;65.89
7200;BME280;3641;49.082;8.200;2023-01-29T11:36:20;101591.16;;;2.05;66.46
7200;BME280;3641;49.082;8.200;2023-01-29T11:39:07;101599.41;;;2.16;67.83
7200;BME280;3641;49.082;8.200;2023-01-29T11:41:43;101589.09;;;2.23;66.90
7200;BME280;3641;49.082;8.200;2023-01-29T11:44:26;101574.72;;;2.36;67.38
7200;BME280;3641;49.082;8.200;2023-01-29T11:46:54;101570.72;;;2.42;68.35
7200;BME280;3641;49.082;8.200;2023-01-29T11:49:27;101565.34;;;2.42;67.60
7200;BME280;3641;49.082;8.200;2023-01-29T11:51:56;101562.25;;;2.48;67.66
7200;BME280;3641;49.082;8.200;2023-01-29T11:54:29;101562.38;;;2.05;64.16
7200;BME280;3641;49.082;8.200;2023-01-29T11:56:58;101551.00;;;2.14;67.05
7200;BME280;3641;49.082;8.200;2023-01-29T11:59:29;101542.34;;;2.24;68.57
7200;BME280;3641;49.082;8.200;2023-01-29T12:02:03;101549.53;;;2.23;64.68
7200;BME280;3641;49.082;8.200;2023-01-29T12:04:31;101545.78;;;2.26;68.41
7200;BME280;3641;49.082;8.200;2023-01-29T12:06:58;101543.13;;;2.11;64.69
7200;BME280;3641;49.082;8.200;2023-01-29T12:09:25;101528.50;;;2.43;69.33
7200;BME280;3641;49.082;8.200;2023-01-29T12:11:53;101527.72;;;2.41;65.38
7200;BME280;3641;49.082;8.200;2023-01-29T12:14:27;101519.97;;;2.49;68.41
7200;BME280;3641;49.082;8.200;2023-01-29T12:17:00;101514.47;;;2.50;66.14
7200;BME280;3641;49.082;8.200;2023-01-29T12:19:33;101510.31;;;2.59;64.17
7200;BME280;3641;49.082;8.200;2023-01-29T12:22:07;101512.13;;;2.46;66.39
7200;BME280;3641;49.082;8.200;2023-01-29T12:24:40;101504.16;;;2.57;67.29
7200;BME280;3641;49.082;8.200;2023-01-29T12:27:13;101492.81;;;2.52;66.99
7200;BME280;3641;49.082;8.200;2023-01-29T12:29:48;101496.31;;;2.67;67.56
7200;BME280;3641;49.082;8.200;2023-01-29T12:32:26;101493.50;;;2.68;67.57
7200;BME280;3641;49.082;8.200;2023-01-29T12:35:01;101475.38;;;2.70;66.31
7200;BME280;3641;49.082;8.200;2023-01-29T12:37:37;101470.00;;;2.70;67.06
7200;BME280;3641;49.082;8.200;2023-01-29T12:40:11;101465.78;;;2.79;67.23
7200;BME280;3641;49.082;8.200;2023-01-29T12:42:40;101465.13;;;2.76;65.34
7200;BME280;3641;49.082;8.200;2023-01-29T12:45:16;101463.75;;;2.57;62.60
7200;BME280;3641;49.082;8.200;2023-01-29T12:47:46;101449.50;;;2.15;62.92
7200;BME280;3641;49.082;8.200;2023-01-29T12:50:19;101445.47;;;2.22;63.35
7200;BME280;3641;49.082;8.200;2023-01-29T12:52:49;101439.91;;;2.64;65.93
7200;BME280;3641;49.082;8.200;2023-01-29T12:55:19;101434.84;;;2.72;65.57
7200;BME280;3641;49.082;8.200;2023-01-29T12:57:52;101420.19;;;2.76;66.92
7200;BME280;3641;49.082;8.200;2023-01-29T13:00:23;101421.78;;;2.79;66.63
7200;BME280;3641;49.082;8.200;2023-01-29T13:02:54;101425.13;;;2.82;64.21
7200;BME280;3641;49.082;8.200;2023-01-29T13:05:24;101420.81;;;2.93;67.41
7200;BME280;3641;49.082;8.200;2023-01-29T13:07:55;101423.72;;;2.89;65.59
7200;BME280;3641;49.082;8.200;2023-01-29T13:10:27;101425.66;;;3.00;66.16
7200;BME280;3641;49.082;8.200;2023-01-29T13:12:58;101416.06;;;2.96;65.79
7200;BME280;3641;49.082;8.200;2023-01-29T13:15:30;101422.09;;;2.35;61.82
7200;BME280;3641;49.082;8.200;2023-01-29T13:18:14;101419.50;;;2.72;66.50
7200;BME280;3641;49.082;8.200;2023-01-29T13:20:47;101424.69;;;2.88;66.32
7200;BME280;3641;49.082;8.200;2023-01-29T13:23:20;101430.97;;;2.76;65.76
7200;BME280;3641;49.082;8.200;2023-01-29T13:25:49;101420.06;;;2.65;64.35
7200;BME280;3641;49.082;8.200;2023-01-29T13:28:24;101427.69;;;2.32;63.29
7200;BME280;3641;49.082;8.200;2023-01-29T13:31:11;101426.09;;;2.43;63.93
7200;BME280;3641;49.082;8.200;2023-01-29T13:33:39;101420.81;;;2.80;64.57
7200;BME280;3641;49.082;8.200;2023-01-29T13:36:13;101422.09;;;3.00;64.59
7200;BME280;3641;49.082;8.200;2023-01-29T13:38:41;101423.47;;;3.18;66.91